Roma, Italy

9:38 AM CEST on April 28, 2015 (GMT +0200)
Largo Preneste | | Change Station
CLOSE
Current Station
Personal Weather Station
Location: Roma, LAZIO
Elevation: 125 ft
Nearby Weather Stations
Active Advisory: Thunderstorms

Elev 125 ft 41.89 °N, 12.54 °E | Updated 3 seconds ago

Light Rain
Light Rain Mist
57.6 °F
Feels Like 57.6 °F
N
0.0
Wind Variable Wind from SE
Gusts 8.0 mph

Today
High -- | Low -- °F
--% Chance of Precip.
Yesterday
High -- | Low -- °F
Precip. -- in
6:10 AM 8:04 PM
Waxing Gibbous, 71% visible
Pressure 29.62 in
Visibility 3.1 miles
Clouds Scattered Clouds 1500 ft
Scattered Clouds 2500 ft
Dew Point 55.0 °F
Humidity 91%
Rainfall 0.68 in
Snow Depth Not available.
UV 3 out of 12
Pollen Not available.
Air Quality Not available.
Flu Activity Not available.
METAR LIRA 280715Z 17006KT 5000 -RA BR SCT015 SCT025 13/11 Q1003

More Conditions Fewer Conditions

Pressure 29.62 in
Visibility 3.1 miles
Clouds Scattered Clouds 1500 ft
Scattered Clouds 2500 ft
Dew Point 55.0 °F
Humidity 91%
Rainfall 0.68 in
Snow Depth Not available.
UV 3 out of 12
Pollen Not available.
Air Quality Not available.
Flu Activity Not available.
METAR LIRA 280715Z 17006KT 5000 -RA BR SCT015 SCT025 13/11 Q1003

More Conditions Fewer Conditions

10-Day Weather Forecast

Almanac

Astronomy

Apr. 28, 2015 Rise Set
Actual Time
Civil Twilight
Nautical Twilight
Astronomical Twilight
Moon
Length of Visible Light
Length of Day
Tomorrow will be .
, % of the Moon is Illuminated

Today's Extremes

Country Highs Country Lows

Community

WunderPhotos

Upload Photos

1,817,594 photos uploaded!

WunderBlogs® & News

Nearby

Air Quality

  Air Quality AQ Index Pollutant
Not available.

Snow Depth

Station Depth Elevation

Earthquake Activity

City Distance Mag. Time & Date
Minimum magnitude displayed is 2.5.

Coastal Water Temperatures

Place Temperature

Stations

Nearby Weather Stations

Station Location Temp. Windchill Dew Point Humidity Wind Precip. Elev Updated Type